sensor_id;sensor_type;location;lat;lon;timestamp;P1;durP1;ratioP1;P2;durP2;ratioP2
3081;SDS011;1551;51.046;7.010;2024-03-23T00:54:42;15.53;;;7.20;;
3081;SDS011;1551;51.046;7.010;2024-03-23T00:57:31;16.55;;;6.95;;
3081;SDS011;1551;51.046;7.010;2024-03-23T01:00:20;17.13;;;7.30;;
3081;SDS011;1551;51.046;7.010;2024-03-23T01:03:09;13.80;;;7.20;;
3081;SDS011;1551;51.046;7.010;2024-03-23T01:05:59;16.25;;;6.30;;
3081;SDS011;1551;51.046;7.010;2024-03-23T01:08:48;8.60;;;4.20;;
3081;SDS011;1551;51.046;7.010;2024-03-23T01:11:37;11.43;;;3.78;;
3081;SDS011;1551;51.046;7.010;2024-03-23T01:14:27;7.43;;;3.33;;
3081;SDS011;1551;51.046;7.010;2024-03-23T01:17:15;5.50;;;2.70;;
3081;SDS011;1551;51.046;7.010;2024-03-23T01:20:04;4.43;;;1.98;;
3081;SDS011;1551;51.046;7.010;2024-03-23T01:22:55;4.40;;;2.08;;
3081;SDS011;1551;51.046;7.010;2024-03-23T01:25:44;5.10;;;2.20;;
3081;SDS011;1551;51.046;7.010;2024-03-23T01:28:40;4.47;;;2.25;;
3081;SDS011;1551;51.046;7.010;2024-03-23T01:31:29;5.45;;;1.88;;
3081;SDS011;1551;51.046;7.010;2024-03-23T01:34:18;6.85;;;2.90;;
3081;SDS011;1551;51.046;7.010;2024-03-23T01:37:09;7.10;;;3.00;;
3081;SDS011;1551;51.046;7.010;2024-03-23T01:39:58;8.30;;;2.60;;
3081;SDS011;1551;51.046;7.010;2024-03-23T01:42:57;5.18;;;2.58;;
3081;SDS011;1551;51.046;7.010;2024-03-23T01:45:53;5.10;;;2.90;;
3081;SDS011;1551;51.046;7.010;2024-03-23T01:48:42;8.27;;;3.33;;
3081;SDS011;1551;51.046;7.010;2024-03-23T01:51:31;6.20;;;2.78;;
3081;SDS011;1551;51.046;7.010;2024-03-23T01:54:21;6.30;;;2.28;;
3081;SDS011;1551;51.046;7.010;2024-03-23T01:57:10;8.25;;;2.33;;
3081;SDS011;1551;51.046;7.010;2024-03-23T02:00:00;8.85;;;2.40;;
3081;SDS011;1551;51.046;7.010;2024-03-23T02:02:49;7.88;;;3.00;;
3081;SDS011;1551;51.046;7.010;2024-03-23T02:05:38;7.43;;;3.08;;
3081;SDS011;1551;51.046;7.010;2024-03-23T02:08:28;6.20;;;3.20;;
3081;SDS011;1551;51.046;7.010;2024-03-23T02:11:19;9.80;;;2.90;;
3081;SDS011;1551;51.046;7.010;2024-03-23T02:14:08;7.37;;;2.80;;
3081;SDS011;1551;51.046;7.010;2024-03-23T02:16:57;6.43;;;2.55;;
3081;SDS011;1551;51.046;7.010;2024-03-23T02:19:45;9.50;;;3.80;;
3081;SDS011;1551;51.046;7.010;2024-03-23T02:22:35;8.95;;;2.80;;
3081;SDS011;1551;51.046;7.010;2024-03-23T02:25:28;5.30;;;2.13;;
3081;SDS011;1551;51.046;7.010;2024-03-23T02:28:17;6.50;;;2.72;;
3081;SDS011;1551;51.046;7.010;2024-03-23T02:31:06;6.27;;;2.97;;
3081;SDS011;1551;51.046;7.010;2024-03-23T02:33:54;6.72;;;2.20;;
3081;SDS011;1551;51.046;7.010;2024-03-23T02:36:43;4.75;;;2.58;;
3081;SDS011;1551;51.046;7.010;2024-03-23T02:39:32;5.30;;;2.63;;
3081;SDS011;1551;51.046;7.010;2024-03-23T02:42:21;9.98;;;2.95;;
3081;SDS011;1551;51.046;7.010;2024-03-23T02:45:10;6.28;;;2.50;;
3081;SDS011;1551;51.046;7.010;2024-03-23T02:48:00;8.48;;;3.13;;
3081;SDS011;1551;51.046;7.010;2024-03-23T02:50:49;10.35;;;3.33;;
3081;SDS011;1551;51.046;7.010;2024-03-23T02:53:38;7.00;;;2.90;;
3081;SDS011;1551;51.046;7.010;2024-03-23T02:56:27;7.65;;;3.28;;
3081;SDS011;1551;51.046;7.010;2024-03-23T02:59:16;6.07;;;3.08;;
3081;SDS011;1551;51.046;7.010;2024-03-23T03:02:05;7.15;;;3.28;;
3081;SDS011;1551;51.046;7.010;2024-03-23T03:04:54;9.90;;;3.30;;
3081;SDS011;1551;51.046;7.010;2024-03-23T03:07:43;6.68;;;2.97;;
3081;SDS011;1551;51.046;7.010;2024-03-23T03:10:32;7.60;;;3.45;;
3081;SDS011;1551;51.046;7.010;2024-03-23T03:13:23;6.78;;;3.22;;
3081;SDS011;1551;51.046;7.010;2024-03-23T03:16:12;9.83;;;3.73;;
3081;SDS011;1551;51.046;7.010;2024-03-23T03:19:01;6.65;;;3.10;;
3081;SDS011;1551;51.046;7.010;2024-03-23T03:21:51;7.60;;;3.10;;
3081;SDS011;1551;51.046;7.010;2024-03-23T03:24:40;9.15;;;3.20;;
3081;SDS011;1551;51.046;7.010;2024-03-23T03:27:28;7.37;;;2.77;;
3081;SDS011;1551;51.046;7.010;2024-03-23T03:30:17;8.27;;;3.03;;
3081;SDS011;1551;51.046;7.010;2024-03-23T03:33:06;9.20;;;3.10;;
3081;SDS011;1551;51.046;7.010;2024-03-23T03:35:55;9.30;;;3.03;;
3081;SDS011;1551;51.046;7.010;2024-03-23T03:38:44;7.77;;;3.03;;
3081;SDS011;1551;51.046;7.010;2024-03-23T03:41:33;7.90;;;2.92;;
3081;SDS011;1551;51.046;7.010;2024-03-23T03:44:22;9.00;;;3.08;;
3081;SDS011;1551;51.046;7.010;2024-03-23T03:47:11;6.35;;;2.97;;
3081;SDS011;1551;51.046;7.010;2024-03-23T03:50:00;6.95;;;2.97;;
3081;SDS011;1551;51.046;7.010;2024-03-23T03:52:49;5.38;;;2.33;;
3081;SDS011;1551;51.046;7.010;2024-03-23T03:55:38;7.40;;;2.95;;
3081;SDS011;1551;51.046;7.010;2024-03-23T03:58:27;6.47;;;2.47;;
3081;SDS011;1551;51.046;7.010;2024-03-23T04:01:16;8.90;;;2.35;;
3081;SDS011;1551;51.046;7.010;2024-03-23T04:04:05;6.07;;;2.60;;
3081;SDS011;1551;51.046;7.010;2024-03-23T04:06:59;7.60;;;2.42;;
3081;SDS011;1551;51.046;7.010;2024-03-23T04:09:51;8.05;;;2.63;;
3081;SDS011;1551;51.046;7.010;2024-03-23T04:12:40;8.30;;;2.40;;
3081;SDS011;1551;51.046;7.010;2024-03-23T04:15:29;5.68;;;2.30;;
3081;SDS011;1551;51.046;7.010;2024-03-23T04:18:18;7.70;;;2.40;;
3081;SDS011;1551;51.046;7.010;2024-03-23T04:21:07;8.25;;;2.92;;
3081;SDS011;1551;51.046;7.010;2024-03-23T04:23:56;9.70;;;3.20;;
3081;SDS011;1551;51.046;7.010;2024-03-23T04:26:44;9.20;;;3.10;;
3081;SDS011;1551;51.046;7.010;2024-03-23T04:29:34;4.60;;;2.45;;
3081;SDS011;1551;51.046;7.010;2024-03-23T04:32:23;7.47;;;2.42;;
3081;SDS011;1551;51.046;7.010;2024-03-23T04:35:12;7.97;;;2.47;;
3081;SDS011;1551;51.046;7.010;2024-03-23T04:38:01;7.78;;;2.33;;
3081;SDS011;1551;51.046;7.010;2024-03-23T04:40:54;6.60;;;2.42;;
3081;SDS011;1551;51.046;7.010;2024-03-23T04:43:47;5.70;;;2.30;;
3081;SDS011;1551;51.046;7.010;2024-03-23T04:46:36;8.30;;;2.30;;
3081;SDS011;1551;51.046;7.010;2024-03-23T04:49:25;9.70;;;2.45;;
3081;SDS011;1551;51.046;7.010;2024-03-23T04:52:14;9.80;;;2.72;;
3081;SDS011;1551;51.046;7.010;2024-03-23T04:55:05;9.40;;;2.80;;
3081;SDS011;1551;51.046;7.010;2024-03-23T04:57:54;6.95;;;2.20;;
3081;SDS011;1551;51.046;7.010;2024-03-23T05:00:43;7.40;;;2.20;;
3081;SDS011;1551;51.046;7.010;2024-03-23T05:03:32;5.30;;;2.00;;
3081;SDS011;1551;51.046;7.010;2024-03-23T05:06:21;5.88;;;1.90;;
3081;SDS011;1551;51.046;7.010;2024-03-23T05:09:09;6.95;;;2.10;;
3081;SDS011;1551;51.046;7.010;2024-03-23T05:12:00;8.38;;;2.13;;
3081;SDS011;1551;51.046;7.010;2024-03-23T05:14:49;8.38;;;2.20;;
3081;SDS011;1551;51.046;7.010;2024-03-23T05:17:38;7.15;;;1.95;;
3081;SDS011;1551;51.046;7.010;2024-03-23T05:20:27;4.65;;;2.20;;
3081;SDS011;1551;51.046;7.010;2024-03-23T05:23:16;6.43;;;2.25;;
3081;SDS011;1551;51.046;7.010;2024-03-23T05:26:05;10.68;;;2.10;;
3081;SDS011;1551;51.046;7.010;2024-03-23T05:28:54;7.17;;;2.53;;
3081;SDS011;1551;51.046;7.010;2024-03-23T05:31:43;5.45;;;2.15;;
3081;SDS011;1551;51.046;7.010;2024-03-23T05:34:32;9.02;;;2.47;;
3081;SDS011;1551;51.046;7.010;2024-03-23T05:37:24;8.70;;;2.80;;
3081;SDS011;1551;51.046;7.010;2024-03-23T05:40:14;7.00;;;2.83;;
3081;SDS011;1551;51.046;7.010;2024-03-23T05:43:04;7.35;;;2.65;;
3081;SDS011;1551;51.046;7.010;2024-03-23T05:45:56;8.05;;;3.00;;
3081;SDS011;1551;51.046;7.010;2024-03-23T05:48:46;8.05;;;2.15;;
3081;SDS011;1551;51.046;7.010;2024-03-23T05:51:35;8.63;;;2.53;;
3081;SDS011;1551;51.046;7.010;2024-03-23T05:54:24;6.80;;;2.38;;
3081;SDS011;1551;51.046;7.010;2024-03-23T05:57:14;9.67;;;2.50;;
3081;SDS011;1551;51.046;7.010;2024-03-23T06:00:03;9.77;;;3.00;;
3081;SDS011;1551;51.046;7.010;2024-03-23T06:03:00;7.63;;;2.78;;
3081;SDS011;1551;51.046;7.010;2024-03-23T06:05:50;9.15;;;2.70;;
3081;SDS011;1551;51.046;7.010;2024-03-23T06:08:39;7.50;;;2.72;;
3081;SDS011;1551;51.046;7.010;2024-03-23T06:11:28;6.50;;;2.90;;
3081;SDS011;1551;51.046;7.010;2024-03-23T06:14:17;7.85;;;3.35;;
3081;SDS011;1551;51.046;7.010;2024-03-23T06:17:06;6.55;;;3.00;;
3081;SDS011;1551;51.046;7.010;2024-03-23T06:19:56;6.35;;;2.50;;
3081;SDS011;1551;51.046;7.010;2024-03-23T06:22:46;9.55;;;3.10;;
3081;SDS011;1551;51.046;7.010;2024-03-23T06:25:35;6.03;;;2.80;;
3081;SDS011;1551;51.046;7.010;2024-03-23T06:28:24;6.38;;;2.40;;
3081;SDS011;1551;51.046;7.010;2024-03-23T06:31:13;8.32;;;2.95;;
3081;SDS011;1551;51.046;7.010;2024-03-23T06:34:02;12.18;;;3.22;;
3081;SDS011;1551;51.046;7.010;2024-03-23T06:36:51;9.30;;;3.10;;
3081;SDS011;1551;51.046;7.010;2024-03-23T06:39:40;8.70;;;3.15;;
3081;SDS011;1551;51.046;7.010;2024-03-23T06:42:29;7.15;;;2.50;;
3081;SDS011;1551;51.046;7.010;2024-03-23T06:45:18;8.55;;;3.00;;
3081;SDS011;1551;51.046;7.010;2024-03-23T06:48:11;9.70;;;3.20;;
3081;SDS011;1551;51.046;7.010;2024-03-23T06:51:00;7.43;;;3.23;;
3081;SDS011;1551;51.046;7.010;2024-03-23T06:53:49;5.70;;;2.42;;
3081;SDS011;1551;51.046;7.010;2024-03-23T06:56:38;7.13;;;2.70;;
3081;SDS011;1551;51.046;7.010;2024-03-23T06:59:27;9.43;;;3.10;;
3081;SDS011;1551;51.046;7.010;2024-03-23T07:02:16;9.65;;;2.70;;
3081;SDS011;1551;51.046;7.010;2024-03-23T07:05:05;6.90;;;2.90;;
3081;SDS011;1551;51.046;7.010;2024-03-23T07:07:55;7.55;;;3.63;;
3081;SDS011;1551;51.046;7.010;2024-03-23T07:10:44;8.25;;;3.20;;
3081;SDS011;1551;51.046;7.010;2024-03-23T07:13:33;7.80;;;3.13;;
3081;SDS011;1551;51.046;7.010;2024-03-23T07:16:22;8.48;;;3.55;;
3081;SDS011;1551;51.046;7.010;2024-03-23T07:19:11;9.80;;;3.10;;
3081;SDS011;1551;51.046;7.010;2024-03-23T07:22:01;5.50;;;2.75;;
3081;SDS011;1551;51.046;7.010;2024-03-23T07:24:50;10.03;;;3.27;;
3081;SDS011;1551;51.046;7.010;2024-03-23T07:27:39;14.85;;;4.90;;
3081;SDS011;1551;51.046;7.010;2024-03-23T07:30:29;9.02;;;4.15;;
3081;SDS011;1551;51.046;7.010;2024-03-23T07:33:18;10.43;;;3.47;;
3081;SDS011;1551;51.046;7.010;2024-03-23T07:36:06;9.20;;;4.00;;
3081;SDS011;1551;51.046;7.010;2024-03-23T07:38:55;8.50;;;3.60;;
3081;SDS011;1551;51.046;7.010;2024-03-23T07:41:45;12.25;;;4.00;;
3081;SDS011;1551;51.046;7.010;2024-03-23T07:44:34;7.72;;;3.92;;
3081;SDS011;1551;51.046;7.010;2024-03-23T07:47:23;9.70;;;4.50;;
3081;SDS011;1551;51.046;7.010;2024-03-23T07:50:12;10.25;;;4.60;;
3081;SDS011;1551;51.046;7.010;2024-03-23T07:53:01;9.23;;;4.30;;
3081;SDS011;1551;51.046;7.010;2024-03-23T07:56:00;13.20;;;4.88;;
3081;SDS011;1551;51.046;7.010;2024-03-23T07:58:51;10.90;;;4.63;;
3081;SDS011;1551;51.046;7.010;2024-03-23T08:01:40;10.45;;;4.22;;
3081;SDS011;1551;51.046;7.010;2024-03-23T08:04:29;13.10;;;6.22;;
3081;SDS011;1551;51.046;7.010;2024-03-23T08:07:19;14.60;;;6.07;;
3081;SDS011;1551;51.046;7.010;2024-03-23T08:10:08;9.40;;;5.95;;
3081;SDS011;1551;51.046;7.010;2024-03-23T08:12:57;11.27;;;5.63;;
3081;SDS011;1551;51.046;7.010;2024-03-23T08:15:46;11.52;;;6.25;;
3081;SDS011;1551;51.046;7.010;2024-03-23T08:18:35;8.15;;;5.80;;
3081;SDS011;1551;51.046;7.010;2024-03-23T08:21:24;11.98;;;5.50;;
3081;SDS011;1551;51.046;7.010;2024-03-23T08:24:15;10.52;;;4.90;;
3081;SDS011;1551;51.046;7.010;2024-03-23T08:27:04;8.35;;;4.40;;
3081;SDS011;1551;51.046;7.010;2024-03-23T08:29:53;9.77;;;5.00;;
3081;SDS011;1551;51.046;7.010;2024-03-23T08:32:42;7.88;;;4.22;;
3081;SDS011;1551;51.046;7.010;2024-03-23T08:35:31;9.50;;;5.03;;
3081;SDS011;1551;51.046;7.010;2024-03-23T08:38:20;9.43;;;4.70;;
3081;SDS011;1551;51.046;7.010;2024-03-23T08:41:09;9.23;;;4.03;;
3081;SDS011;1551;51.046;7.010;2024-03-23T08:43:59;8.82;;;3.80;;
3081;SDS011;1551;51.046;7.010;2024-03-23T08:46:49;8.85;;;3.85;;
3081;SDS011;1551;51.046;7.010;2024-03-23T08:49:38;8.30;;;3.67;;
3081;SDS011;1551;51.046;7.010;2024-03-23T08:52:27;6.25;;;3.33;;
3081;SDS011;1551;51.046;7.010;2024-03-23T08:55:18;8.23;;;2.80;;
3081;SDS011;1551;51.046;7.010;2024-03-23T08:58:07;10.10;;;3.40;;
3081;SDS011;1551;51.046;7.010;2024-03-23T09:01:07;9.80;;;3.47;;
3081;SDS011;1551;51.046;7.010;2024-03-23T09:03:57;8.60;;;3.10;;
3081;SDS011;1551;51.046;7.010;2024-03-23T09:06:46;8.88;;;3.50;;
3081;SDS011;1551;51.046;7.010;2024-03-23T09:09:35;7.53;;;3.38;;
3081;SDS011;1551;51.046;7.010;2024-03-23T09:12:26;8.10;;;4.15;;
3081;SDS011;1551;51.046;7.010;2024-03-23T09:15:16;8.43;;;3.85;;
3081;SDS011;1551;51.046;7.010;2024-03-23T09:18:05;8.18;;;4.20;;
3081;SDS011;1551;51.046;7.010;2024-03-23T09:20:54;7.30;;;4.13;;
3081;SDS011;1551;51.046;7.010;2024-03-23T09:23:43;9.00;;;3.60;;
3081;SDS011;1551;51.046;7.010;2024-03-23T09:26:32;8.95;;;4.10;;
3081;SDS011;1551;51.046;7.010;2024-03-23T09:29:21;8.02;;;3.70;;
3081;SDS011;1551;51.046;7.010;2024-03-23T09:32:10;8.85;;;3.60;;
3081;SDS011;1551;51.046;7.010;2024-03-23T09:34:59;9.63;;;3.42;;
3081;SDS011;1551;51.046;7.010;2024-03-23T09:37:48;9.55;;;4.03;;
3081;SDS011;1551;51.046;7.010;2024-03-23T09:40:40;8.48;;;4.05;;
3081;SDS011;1551;51.046;7.010;2024-03-23T09:43:33;11.00;;;3.30;;
3081;SDS011;1551;51.046;7.010;2024-03-23T09:46:22;6.53;;;3.20;;
3081;SDS011;1551;51.046;7.010;2024-03-23T09:49:11;7.18;;;3.20;;
3081;SDS011;1551;51.046;7.010;2024-03-23T09:52:00;7.80;;;2.67;;
3081;SDS011;1551;51.046;7.010;2024-03-23T09:54:49;7.78;;;3.28;;
3081;SDS011;1551;51.046;7.010;2024-03-23T09:57:38;6.80;;;2.90;;
3081;SDS011;1551;51.046;7.010;2024-03-23T10:00:27;8.35;;;3.10;;
3081;SDS011;1551;51.046;7.010;2024-03-23T10:03:16;6.23;;;2.60;;
3081;SDS011;1551;51.046;7.010;2024-03-23T10:06:05;6.90;;;3.10;;
3081;SDS011;1551;51.046;7.010;2024-03-23T10:08:54;5.88;;;2.40;;
3081;SDS011;1551;51.046;7.010;2024-03-23T10:11:43;7.40;;;2.40;;
3081;SDS011;1551;51.046;7.010;2024-03-23T10:14:37;7.65;;;2.63;;
3081;SDS011;1551;51.046;7.010;2024-03-23T10:17:26;7.90;;;2.42;;
3081;SDS011;1551;51.046;7.010;2024-03-23T10:20:22;7.53;;;2.45;;
3081;SDS011;1551;51.046;7.010;2024-03-23T10:23:18;7.05;;;2.20;;
3081;SDS011;1551;51.046;7.010;2024-03-23T10:26:13;6.47;;;1.90;;
3081;SDS011;1551;51.046;7.010;2024-03-23T10:29:03;5.47;;;2.08;;
3081;SDS011;1551;51.046;7.010;2024-03-23T10:32:10;4.90;;;1.75;;
3081;SDS011;1551;51.046;7.010;2024-03-23T10:35:21;4.65;;;1.77;;
3081;SDS011;1551;51.046;7.010;2024-03-23T10:38:10;5.40;;;2.08;;
3081;SDS011;1551;51.046;7.010;2024-03-23T10:41:00;3.65;;;1.60;;
3081;SDS011;1551;51.046;7.010;2024-03-23T10:43:50;3.47;;;1.20;;
3081;SDS011;1551;51.046;7.010;2024-03-23T10:46:39;3.95;;;1.65;;
3081;SDS011;1551;51.046;7.010;2024-03-23T10:49:29;3.47;;;1.35;;
3081;SDS011;1551;51.046;7.010;2024-03-23T10:52:19;4.65;;;1.40;;
3081;SDS011;1551;51.046;7.010;2024-03-23T10:55:08;3.20;;;1.20;;
3081;SDS011;1551;51.046;7.010;2024-03-23T10:57:59;2.30;;;1.10;;
3081;SDS011;1551;51.046;7.010;2024-03-23T11:00:48;2.77;;;1.20;;
3081;SDS011;1551;51.046;7.010;2024-03-23T11:03:38;3.55;;;1.10;;
3081;SDS011;1551;51.046;7.010;2024-03-23T11:06:34;2.22;;;0.70;;
3081;SDS011;1551;51.046;7.010;2024-03-23T11:12:30;4.07;;;1.40;;
3081;SDS011;1551;51.046;7.010;2024-03-23T11:15:21;3.47;;;1.40;;
3081;SDS011;1551;51.046;7.010;2024-03-23T11:18:10;4.25;;;1.35;;
3081;SDS011;1551;51.046;7.010;2024-03-23T11:21:00;2.90;;;0.90;;
3081;SDS011;1551;51.046;7.010;2024-03-23T11:23:49;2.90;;;1.10;;
3081;SDS011;1551;51.046;7.010;2024-03-23T11:26:38;3.40;;;1.00;;
3081;SDS011;1551;51.046;7.010;2024-03-23T11:29:28;3.10;;;1.10;;
3081;SDS011;1551;51.046;7.010;2024-03-23T11:32:18;2.13;;;1.17;;
3081;SDS011;1551;51.046;7.010;2024-03-23T11:35:07;3.10;;;1.30;;
3081;SDS011;1551;51.046;7.010;2024-03-23T11:38:05;2.20;;;1.00;;
3081;SDS011;1551;51.046;7.010;2024-03-23T11:40:54;2.90;;;1.92;;
3081;SDS011;1551;51.046;7.010;2024-03-23T11:43:43;3.70;;;1.17;;
3081;SDS011;1551;51.046;7.010;2024-03-23T11:46:32;3.35;;;1.50;;
3081;SDS011;1551;51.046;7.010;2024-03-23T11:49:28;2.65;;;1.10;;
3081;SDS011;1551;51.046;7.010;2024-03-23T11:52:18;3.10;;;0.90;;
3081;SDS011;1551;51.046;7.010;2024-03-23T11:55:07;3.50;;;1.13;;
3081;SDS011;1551;51.046;7.010;2024-03-23T11:57:56;3.95;;;2.35;;
3081;SDS011;1551;51.046;7.010;2024-03-23T12:00:52;4.20;;;3.30;;
3081;SDS011;1551;51.046;7.010;2024-03-23T12:03:43;3.83;;;2.58;;
3081;SDS011;1551;51.046;7.010;2024-03-23T12:06:32;3.00;;;1.20;;
3081;SDS011;1551;51.046;7.010;2024-03-23T12:09:21;3.50;;;1.73;;
3081;SDS011;1551;51.046;7.010;2024-03-23T12:12:12;2.90;;;2.00;;
3081;SDS011;1551;51.046;7.010;2024-03-23T12:15:07;3.95;;;2.38;;
3081;SDS011;1551;51.046;7.010;2024-03-23T12:18:07;5.47;;;2.47;;
3081;SDS011;1551;51.046;7.010;2024-03-23T12:20:56;3.65;;;1.90;;
3081;SDS011;1551;51.046;7.010;2024-03-23T12:23:45;2.92;;;1.02;;
3081;SDS011;1551;51.046;7.010;2024-03-23T12:26:35;2.20;;;0.73;;
3081;SDS011;1551;51.046;7.010;2024-03-23T12:29:28;2.30;;;0.80;;
3081;SDS011;1551;51.046;7.010;2024-03-23T12:32:17;1.90;;;0.77;;
3081;SDS011;1551;51.046;7.010;2024-03-23T12:35:07;1.90;;;0.90;;
3081;SDS011;1551;51.046;7.010;2024-03-23T12:37:58;2.20;;;1.30;;
3081;SDS011;1551;51.046;7.010;2024-03-23T12:40:50;4.28;;;1.40;;
3081;SDS011;1551;51.046;7.010;2024-03-23T12:43:40;3.28;;;1.00;;
3081;SDS011;1551;51.046;7.010;2024-03-23T12:46:28;2.15;;;0.80;;
3081;SDS011;1551;51.046;7.010;2024-03-23T12:49:17;3.05;;;1.00;;
3081;SDS011;1551;51.046;7.010;2024-03-23T12:52:06;1.90;;;0.80;;
3081;SDS011;1551;51.046;7.010;2024-03-23T12:54:56;3.20;;;0.90;;
3081;SDS011;1551;51.046;7.010;2024-03-23T12:57:45;2.10;;;0.88;;
3081;SDS011;1551;51.046;7.010;2024-03-23T13:00:34;2.75;;;0.90;;
3081;SDS011;1551;51.046;7.010;2024-03-23T13:03:23;1.65;;;0.60;;
3081;SDS011;1551;51.046;7.010;2024-03-23T13:06:12;1.90;;;0.77;;
3081;SDS011;1551;51.046;7.010;2024-03-23T13:09:02;3.10;;;1.60;;
3081;SDS011;1551;51.046;7.010;2024-03-23T13:11:52;3.20;;;1.10;;
3081;SDS011;1551;51.046;7.010;2024-03-23T13:14:41;3.80;;;0.90;;
3081;SDS011;1551;51.046;7.010;2024-03-23T13:17:30;2.00;;;0.90;;
3081;SDS011;1551;51.046;7.010;2024-03-23T13:20:19;7.50;;;1.50;;
3081;SDS011;1551;51.046;7.010;2024-03-23T13:23:09;3.28;;;1.45;;
3081;SDS011;1551;51.046;7.010;2024-03-23T13:25:58;1.90;;;0.90;;
3081;SDS011;1551;51.046;7.010;2024-03-23T13:28:47;3.47;;;1.30;;
3081;SDS011;1551;51.046;7.010;2024-03-23T13:31:36;2.37;;;1.10;;
3081;SDS011;1551;51.046;7.010;2024-03-23T13:34:25;3.00;;;1.37;;
3081;SDS011;1551;51.046;7.010;2024-03-23T13:37:13;2.20;;;1.10;;
3081;SDS011;1551;51.046;7.010;2024-03-23T13:40:02;2.88;;;1.50;;
3081;SDS011;1551;51.046;7.010;2024-03-23T13:42:52;3.17;;;1.80;;
3081;SDS011;1551;51.046;7.010;2024-03-23T13:45:41;4.63;;;2.00;;
3081;SDS011;1551;51.046;7.010;2024-03-23T13:48:30;4.65;;;1.95;;
3081;SDS011;1551;51.046;7.010;2024-03-23T13:51:22;4.63;;;2.05;;
3081;SDS011;1551;51.046;7.010;2024-03-23T13:54:14;2.83;;;1.90;;
3081;SDS011;1551;51.046;7.010;2024-03-23T13:57:03;2.50;;;1.55;;
3081;SDS011;1551;51.046;7.010;2024-03-23T13:59:52;3.90;;;1.90;;
3081;SDS011;1551;51.046;7.010;2024-03-23T14:02:41;3.50;;;1.77;;
3081;SDS011;1551;51.046;7.010;2024-03-23T14:05:30;3.03;;;1.50;;
3081;SDS011;1551;51.046;7.010;2024-03-23T14:08:18;9.98;;;8.52;;
3081;SDS011;1551;51.046;7.010;2024-03-23T14:11:10;3.17;;;2.00;;
3081;SDS011;1551;51.046;7.010;2024-03-23T14:13:59;2.70;;;1.10;;
3081;SDS011;1551;51.046;7.010;2024-03-23T14:16:48;3.35;;;1.17;;
3081;SDS011;1551;51.046;7.010;2024-03-23T14:19:37;2.05;;;0.90;;
3081;SDS011;1551;51.046;7.010;2024-03-23T14:22:26;4.20;;;1.45;;
3081;SDS011;1551;51.046;7.010;2024-03-23T14:25:16;2.13;;;1.20;;
3081;SDS011;1551;51.046;7.010;2024-03-23T14:28:04;2.30;;;1.20;;
3081;SDS011;1551;51.046;7.010;2024-03-23T14:30:55;3.42;;;1.50;;
3081;SDS011;1551;51.046;7.010;2024-03-23T14:33:44;3.92;;;1.30;;
3081;SDS011;1551;51.046;7.010;2024-03-23T14:36:37;2.90;;;1.40;;
3081;SDS011;1551;51.046;7.010;2024-03-23T14:39:26;3.17;;;1.50;;
3081;SDS011;1551;51.046;7.010;2024-03-23T14:42:15;4.28;;;1.60;;
3081;SDS011;1551;51.046;7.010;2024-03-23T14:45:04;2.50;;;1.20;;
3081;SDS011;1551;51.046;7.010;2024-03-23T14:47:54;4.15;;;1.98;;
3081;SDS011;1551;51.046;7.010;2024-03-23T14:50:43;4.78;;;2.35;;
3081;SDS011;1551;51.046;7.010;2024-03-23T14:53:32;6.55;;;2.83;;
3081;SDS011;1551;51.046;7.010;2024-03-23T14:56:22;2.70;;;1.30;;
3081;SDS011;1551;51.046;7.010;2024-03-23T14:59:11;3.08;;;1.30;;
3081;SDS011;1551;51.046;7.010;2024-03-23T15:02:00;4.32;;;1.38;;
3081;SDS011;1551;51.046;7.010;2024-03-23T15:04:49;3.67;;;1.85;;
3081;SDS011;1551;51.046;7.010;2024-03-23T15:07:38;2.40;;;1.13;;
3081;SDS011;1551;51.046;7.010;2024-03-23T15:10:27;2.75;;;1.30;;
3081;SDS011;1551;51.046;7.010;2024-03-23T15:13:16;5.40;;;1.20;;
3081;SDS011;1551;51.046;7.010;2024-03-23T15:16:05;4.20;;;1.40;;
3081;SDS011;1551;51.046;7.010;2024-03-23T15:18:55;3.97;;;1.23;;
3081;SDS011;1551;51.046;7.010;2024-03-23T15:21:43;3.20;;;1.50;;
3081;SDS011;1551;51.046;7.010;2024-03-23T15:24:33;2.83;;;1.42;;
3081;SDS011;1551;51.046;7.010;2024-03-23T15:27:23;3.20;;;1.30;;
3081;SDS011;1551;51.046;7.010;2024-03-23T15:30:12;4.97;;;1.40;;
3081;SDS011;1551;51.046;7.010;2024-03-23T15:33:02;3.42;;;1.10;;
3081;SDS011;1551;51.046;7.010;2024-03-23T15:35:51;5.63;;;1.70;;
3081;SDS011;1551;51.046;7.010;2024-03-23T15:38:40;3.65;;;1.80;;
3081;SDS011;1551;51.046;7.010;2024-03-23T15:41:29;2.30;;;1.30;;
3081;SDS011;1551;51.046;7.010;2024-03-23T15:44:19;4.70;;;1.20;;
3081;SDS011;1551;51.046;7.010;2024-03-23T15:47:09;2.42;;;1.15;;
3081;SDS011;1551;51.046;7.010;2024-03-23T15:49:58;2.70;;;1.10;;
3081;SDS011;1551;51.046;7.010;2024-03-23T15:52:47;2.97;;;1.20;;
3081;SDS011;1551;51.046;7.010;2024-03-23T15:55:36;2.80;;;1.30;;
3081;SDS011;1551;51.046;7.010;2024-03-23T15:58:27;2.80;;;1.40;;
3081;SDS011;1551;51.046;7.010;2024-03-23T16:01:17;2.20;;;1.10;;
3081;SDS011;1551;51.046;7.010;2024-03-23T16:04:05;2.80;;;1.63;;
3081;SDS011;1551;51.046;7.010;2024-03-23T16:06:54;3.03;;;1.40;;
3081;SDS011;1551;51.046;7.010;2024-03-23T16:09:43;3.55;;;1.70;;
3081;SDS011;1551;51.046;7.010;2024-03-23T16:12:32;4.80;;;1.40;;
3081;SDS011;1551;51.046;7.010;2024-03-23T16:15:21;3.72;;;1.48;;
3081;SDS011;1551;51.046;7.010;2024-03-23T16:18:10;3.42;;;1.35;;
3081;SDS011;1551;51.046;7.010;2024-03-23T16:21:00;2.20;;;1.00;;
3081;SDS011;1551;51.046;7.010;2024-03-23T16:23:51;2.10;;;1.17;;
3081;SDS011;1551;51.046;7.010;2024-03-23T16:26:40;3.17;;;1.47;;
3081;SDS011;1551;51.046;7.010;2024-03-23T16:29:28;4.20;;;2.40;;
3081;SDS011;1551;51.046;7.010;2024-03-23T16:32:17;3.13;;;1.80;;
3081;SDS011;1551;51.046;7.010;2024-03-23T16:35:07;4.72;;;2.20;;
3081;SDS011;1551;51.046;7.010;2024-03-23T16:37:59;4.85;;;2.80;;
3081;SDS011;1551;51.046;7.010;2024-03-23T16:40:54;8.80;;;4.35;;
3081;SDS011;1551;51.046;7.010;2024-03-23T16:43:43;4.10;;;1.90;;
3081;SDS011;1551;51.046;7.010;2024-03-23T16:46:33;2.47;;;1.40;;
3081;SDS011;1551;51.046;7.010;2024-03-23T16:49:22;2.70;;;1.40;;
3081;SDS011;1551;51.046;7.010;2024-03-23T16:52:11;3.80;;;1.20;;
3081;SDS011;1551;51.046;7.010;2024-03-23T16:55:00;2.70;;;1.48;;
3081;SDS011;1551;51.046;7.010;2024-03-23T16:57:49;2.30;;;1.60;;
3081;SDS011;1551;51.046;7.010;2024-03-23T17:00:38;2.10;;;1.10;;
3081;SDS011;1551;51.046;7.010;2024-03-23T17:03:27;2.40;;;1.00;;
3081;SDS011;1551;51.046;7.010;2024-03-23T17:06:17;2.83;;;1.40;;
3081;SDS011;1551;51.046;7.010;2024-03-23T17:09:07;3.42;;;1.40;;
3081;SDS011;1551;51.046;7.010;2024-03-23T17:11:58;2.80;;;0.90;;
3081;SDS011;1551;51.046;7.010;2024-03-23T17:14:48;4.22;;;1.40;;
3081;SDS011;1551;51.046;7.010;2024-03-23T17:17:37;3.80;;;1.55;;
3081;SDS011;1551;51.046;7.010;2024-03-23T17:20:26;3.17;;;1.70;;
3081;SDS011;1551;51.046;7.010;2024-03-23T17:23:28;3.20;;;1.50;;
3081;SDS011;1551;51.046;7.010;2024-03-23T17:26:19;3.40;;;1.65;;
3081;SDS011;1551;51.046;7.010;2024-03-23T17:29:08;3.67;;;1.50;;
3081;SDS011;1551;51.046;7.010;2024-03-23T17:31:57;3.38;;;1.75;;
3081;SDS011;1551;51.046;7.010;2024-03-23T17:34:46;4.32;;;1.77;;
3081;SDS011;1551;51.046;7.010;2024-03-23T17:37:35;4.85;;;1.60;;
3081;SDS011;1551;51.046;7.010;2024-03-23T17:40:25;3.00;;;1.50;;
3081;SDS011;1551;51.046;7.010;2024-03-23T17:43:14;2.92;;;1.50;;
3081;SDS011;1551;51.046;7.010;2024-03-23T17:46:03;2.88;;;2.30;;
3081;SDS011;1551;51.046;7.010;2024-03-23T17:48:53;3.17;;;1.50;;
3081;SDS011;1551;51.046;7.010;2024-03-23T17:51:42;4.25;;;1.60;;
3081;SDS011;1551;51.046;7.010;2024-03-23T17:54:34;3.35;;;1.50;;
3081;SDS011;1551;51.046;7.010;2024-03-23T17:57:23;2.80;;;1.80;;
3081;SDS011;1551;51.046;7.010;2024-03-23T18:00:13;3.30;;;2.70;;
3081;SDS011;1551;51.046;7.010;2024-03-23T18:03:03;3.25;;;2.03;;
3081;SDS011;1551;51.046;7.010;2024-03-23T18:05:52;3.80;;;1.90;;
3081;SDS011;1551;51.046;7.010;2024-03-23T18:08:41;4.10;;;2.20;;
3081;SDS011;1551;51.046;7.010;2024-03-23T18:11:30;3.58;;;2.10;;
3081;SDS011;1551;51.046;7.010;2024-03-23T18:14:19;2.80;;;1.77;;
3081;SDS011;1551;51.046;7.010;2024-03-23T18:17:08;3.60;;;2.00;;
3081;SDS011;1551;51.046;7.010;2024-03-23T18:19:57;3.40;;;2.25;;
3081;SDS011;1551;51.046;7.010;2024-03-23T18:22:46;6.22;;;2.70;;
3081;SDS011;1551;51.046;7.010;2024-03-23T18:25:35;4.95;;;2.72;;
3081;SDS011;1551;51.046;7.010;2024-03-23T18:28:24;4.82;;;2.33;;
3081;SDS011;1551;51.046;7.010;2024-03-23T18:31:14;3.20;;;2.00;;